createdAt,value
2018-02-18T00:01:11.099Z,29.73
2018-02-18T00:03:37.994Z,25.53
2018-02-18T00:06:04.861Z,24.23
2018-02-18T00:08:31.712Z,27.53
2018-02-18T00:10:58.578Z,22.23
2018-02-18T00:13:25.514Z,21.80
2018-02-18T00:15:52.365Z,25.80
2018-02-18T00:18:19.217Z,22.30
2018-02-18T00:20:46.186Z,24.83
2018-02-18T00:23:13.074Z,21.33
2018-02-18T00:25:39.950Z,25.57
2018-02-18T00:28:07.553Z,21.53
2018-02-18T00:30:34.530Z,25.30
2018-02-18T00:33:01.489Z,25.33
2018-02-18T00:35:28.572Z,22.77
2018-02-18T00:37:55.533Z,29.37
2018-02-18T00:40:22.399Z,31.70
2018-02-18T00:42:49.261Z,29.63
2018-02-18T00:45:16.114Z,25.60
2018-02-18T00:47:43.071Z,23.37
2018-02-18T00:50:09.979Z,33.20
2018-02-18T00:52:36.874Z,34.97
2018-02-18T00:55:03.754Z,31.30
2018-02-18T00:57:30.699Z,30.60
2018-02-18T00:59:57.647Z,37.27
2018-02-18T01:02:24.516Z,39.93
2018-02-18T01:04:51.377Z,37.03
2018-02-18T01:07:18.308Z,34.27
2018-02-18T01:09:45.319Z,30.00
2018-02-18T01:12:12.177Z,28.30
2018-02-18T01:14:39.109Z,33.10
2018-02-18T01:17:06.042Z,29.57
2018-02-18T01:19:32.915Z,21.43
2018-02-18T01:21:59.789Z,28.07
2018-02-18T01:24:26.651Z,22.97
2018-02-18T01:26:53.598Z,24.90
2018-02-18T01:29:20.539Z,20.63
2018-02-18T01:31:47.410Z,26.43
2018-02-18T01:34:14.323Z,23.47
2018-02-18T01:36:41.218Z,25.53
2018-02-18T01:39:08.167Z,23.83
2018-02-18T01:41:35.060Z,21.37
2018-02-18T01:44:01.930Z,29.87
2018-02-18T01:46:29.199Z,21.77
2018-02-18T01:48:56.109Z,23.27
2018-02-18T01:51:22.958Z,27.60
2018-02-18T01:53:49.830Z,21.07
2018-02-18T01:56:16.782Z,22.03
2018-02-18T01:58:43.669Z,21.43
2018-02-18T02:01:10.558Z,22.00
2018-02-18T02:03:37.804Z,27.23
2018-02-18T02:06:04.692Z,23.90
2018-02-18T02:08:31.989Z,25.77
2018-02-18T02:10:58.841Z,24.10
2018-02-18T02:13:25.712Z,25.23
2018-02-18T02:15:52.654Z,19.23
2018-02-18T02:18:19.622Z,23.80
2018-02-18T02:20:46.482Z,22.70
2018-02-18T02:23:13.450Z,25.07
2018-02-18T02:25:40.408Z,25.40
2018-02-18T02:28:07.353Z,31.33
2018-02-18T02:30:34.327Z,25.10
2018-02-18T02:33:01.300Z,27.23
2018-02-18T02:35:28.155Z,18.63
2018-02-18T02:37:55.041Z,21.17
2018-02-18T02:40:22.379Z,23.03
2018-02-18T02:42:49.332Z,22.57
2018-02-18T02:45:16.302Z,19.17
2018-02-18T02:47:43.185Z,21.83
2018-02-18T02:50:10.071Z,21.63
2018-02-18T02:52:36.935Z,20.83
2018-02-18T02:55:03.807Z,19.67
2018-02-18T02:57:30.677Z,25.20
2018-02-18T02:59:57.540Z,25.17
2018-02-18T03:02:24.397Z,17.60
2018-02-18T03:04:51.274Z,24.03
2018-02-18T03:07:18.118Z,20.70
2018-02-18T03:09:45.020Z,22.50
2018-02-18T03:12:11.908Z,27.67
2018-02-18T03:14:38.875Z,22.27
2018-02-18T03:17:05.742Z,22.33
2018-02-18T03:19:32.634Z,23.13
2018-02-18T03:21:59.950Z,25.43
2018-02-18T03:24:26.902Z,27.23
2018-02-18T03:26:53.786Z,21.17
2018-02-18T03:29:20.634Z,25.20
2018-02-18T03:31:47.574Z,20.57
2018-02-18T03:34:14.431Z,20.57
2018-02-18T03:36:41.315Z,22.17
2018-02-18T03:39:08.202Z,21.80
2018-02-18T03:41:35.085Z,22.23
2018-02-18T03:44:01.969Z,23.80
2018-02-18T03:46:28.929Z,23.10
2018-02-18T03:48:55.777Z,18.70
2018-02-18T03:51:22.645Z,20.63
2018-02-18T03:53:49.598Z,25.47
2018-02-18T03:56:16.474Z,27.00
2018-02-18T03:58:43.491Z,20.07
2018-02-18T04:01:10.700Z,23.60
2018-02-18T04:03:37.558Z,22.93
2018-02-18T04:06:04.462Z,23.53
2018-02-18T04:08:31.357Z,19.40
2018-02-18T04:10:58.214Z,23.33
2018-02-18T04:13:25.101Z,24.03
2018-02-18T04:15:52.029Z,22.10
2018-02-18T04:18:18.982Z,22.10
2018-02-18T04:20:45.870Z,20.67
2018-02-18T04:23:12.826Z,23.70
2018-02-18T04:25:39.714Z,23.67
2018-02-18T04:28:07.027Z,25.97
2018-02-18T04:30:33.994Z,20.17
2018-02-18T04:33:00.942Z,25.30
2018-02-18T04:35:27.903Z,23.43
2018-02-18T04:37:54.865Z,25.13
2018-02-18T04:40:21.725Z,23.87
2018-02-18T04:42:48.598Z,24.40
2018-02-18T04:45:15.453Z,25.47
2018-02-18T04:47:42.396Z,21.07
2018-02-18T04:50:09.317Z,29.33
2018-02-18T04:52:36.575Z,24.30
2018-02-18T04:55:03.862Z,24.80
2018-02-18T04:57:30.806Z,24.83
2018-02-18T04:59:58.082Z,21.90
2018-02-18T05:02:24.971Z,25.80
2018-02-18T05:04:51.930Z,23.80
2018-02-18T05:07:18.862Z,25.33
2018-02-18T05:09:45.723Z,20.97
2018-02-18T05:12:12.578Z,27.70
2018-02-18T05:14:39.472Z,23.60
2018-02-18T05:17:06.354Z,22.13
2018-02-18T05:19:33.220Z,26.70
2018-02-18T05:22:00.142Z,25.23
2018-02-18T05:24:27.010Z,21.37
2018-02-18T05:26:53.954Z,24.37
2018-02-18T05:29:20.920Z,27.00
2018-02-18T05:31:47.797Z,21.50
2018-02-18T05:34:14.672Z,25.20
2018-02-18T05:36:41.997Z,29.23
2018-02-18T05:39:08.956Z,22.43
2018-02-18T05:41:35.806Z,27.37
2018-02-18T05:44:02.765Z,28.57
2018-02-18T05:46:29.734Z,23.70
2018-02-18T05:48:56.618Z,24.17
2018-02-18T05:51:23.960Z,30.13
2018-02-18T05:53:50.909Z,33.00
2018-02-18T05:56:17.781Z,25.40
2018-02-18T05:58:44.733Z,30.40
2018-02-18T06:01:11.752Z,23.83
2018-02-18T06:03:38.779Z,33.80
2018-02-18T06:06:05.653Z,29.10
2018-02-18T06:08:32.506Z,27.90
2018-02-18T06:10:59.590Z,29.43
2018-02-18T06:13:26.889Z,30.10
2018-02-18T06:15:53.772Z,31.57
2018-02-18T06:18:20.709Z,25.97
2018-02-18T06:20:47.602Z,25.07
2018-02-18T06:23:14.533Z,31.27
2018-02-18T06:25:41.438Z,27.33
2018-02-18T06:28:08.739Z,23.97
2018-02-18T06:30:35.621Z,26.90
2018-02-18T06:33:02.566Z,30.90
2018-02-18T06:35:29.441Z,27.40
2018-02-18T06:37:56.325Z,29.67
2018-02-18T06:40:23.252Z,28.67
2018-02-18T06:42:50.203Z,29.27
2018-02-18T06:45:17.090Z,32.23
2018-02-18T06:47:44.027Z,28.30
2018-02-18T06:50:10.988Z,30.33
2018-02-18T06:52:37.860Z,25.33
2018-02-18T06:55:04.754Z,26.60
2018-02-18T06:57:32.062Z,29.60
2018-02-18T06:59:58.946Z,27.20
2018-02-18T07:02:25.798Z,28.07
2018-02-18T07:04:52.674Z,25.37
2018-02-18T07:07:19.596Z,28.20
2018-02-18T07:09:46.492Z,26.43
2018-02-18T07:12:13.383Z,24.37
2018-02-18T07:14:40.630Z,27.87
2018-02-18T07:17:08.038Z,25.20
2018-02-18T07:19:34.917Z,26.07
2018-02-18T07:22:01.939Z,28.93
2018-02-18T07:24:29.224Z,24.73
2018-02-18T07:26:56.194Z,26.60
2018-02-18T07:29:23.068Z,26.60
2018-02-18T07:31:49.939Z,22.97
2018-02-18T07:34:16.860Z,26.90
2018-02-18T07:36:43.848Z,28.97
2018-02-18T07:39:10.716Z,26.80
2018-02-18T07:41:37.595Z,26.60
2018-02-18T07:44:04.856Z,33.10
2018-02-18T07:46:32.133Z,24.37
2018-02-18T07:48:59.018Z,24.00
2018-02-18T07:51:25.914Z,29.00
2018-02-18T07:53:52.797Z,28.13
2018-02-18T07:56:20.048Z,27.37
2018-02-18T07:58:46.971Z,25.77
2018-02-18T08:01:13.866Z,25.90
2018-02-18T08:03:40.736Z,24.30
2018-02-18T08:06:08.006Z,31.57
2018-02-18T08:08:35.265Z,27.23
2018-02-18T08:11:02.588Z,29.10
2018-02-18T08:13:29.546Z,25.83
2018-02-18T08:15:56.418Z,33.20
2018-02-18T08:18:23.272Z,26.70
2018-02-18T08:20:50.218Z,26.67
2018-02-18T08:23:17.129Z,31.40
2018-02-18T08:25:44.453Z,30.43
2018-02-18T08:28:11.331Z,32.10
2018-02-18T08:30:38.280Z,28.53
2018-02-18T08:33:05.222Z,28.67
2018-02-18T08:35:32.170Z,32.63
2018-02-18T08:37:59.130Z,26.33
2018-02-18T08:40:25.987Z,28.00
2018-02-18T08:42:52.848Z,29.27
2018-02-18T08:45:19.729Z,35.77
2018-02-18T08:47:46.584Z,37.93
2018-02-18T08:50:13.450Z,31.63
2018-02-18T08:52:40.390Z,33.17
2018-02-18T08:55:07.331Z,34.43
2018-02-18T08:57:34.296Z,35.67
2018-02-18T09:00:01.154Z,33.40
2018-02-18T09:02:28.011Z,29.97
2018-02-18T09:04:54.889Z,31.60
2018-02-18T09:07:21.834Z,35.20
2018-02-18T09:09:48.689Z,35.13
2018-02-18T09:12:15.642Z,36.60
2018-02-18T09:14:42.585Z,30.00
2018-02-18T09:17:09.453Z,30.27
2018-02-18T09:19:36.322Z,33.03
2018-02-18T09:22:03.566Z,35.93
2018-02-18T09:24:30.441Z,31.47
2018-02-18T09:26:57.307Z,35.20
2018-02-18T09:29:24.160Z,30.07
2018-02-18T09:31:51.081Z,33.13
2018-02-18T09:34:17.974Z,37.63
2018-02-18T09:36:44.837Z,35.73
2018-02-18T09:39:11.715Z,35.20
2018-02-18T09:41:38.608Z,32.23
2018-02-18T09:44:05.501Z,35.70
2018-02-18T09:46:32.349Z,37.13
2018-02-18T09:48:59.246Z,32.67
2018-02-18T09:51:26.134Z,32.20
2018-02-18T09:53:53.438Z,38.83
2018-02-18T09:56:20.285Z,34.10
2018-02-18T09:58:47.174Z,37.60
2018-02-18T10:01:14.148Z,35.03
2018-02-18T10:03:41.086Z,39.93
2018-02-18T10:06:07.955Z,37.20
2018-02-18T10:08:34.844Z,37.93
2018-02-18T10:11:01.742Z,36.60
2018-02-18T10:13:28.609Z,38.07
2018-02-18T10:15:55.473Z,38.73
2018-02-18T10:18:22.422Z,54.73
2018-02-18T10:20:49.288Z,34.30
2018-02-18T10:23:16.178Z,37.60
2018-02-18T10:25:43.061Z,40.57
2018-02-18T10:28:09.944Z,35.53
2018-02-18T10:30:36.952Z,37.90
2018-02-18T10:33:04.365Z,38.37
2018-02-18T10:35:31.202Z,37.60
2018-02-18T10:37:58.509Z,38.20
2018-02-18T10:40:25.385Z,34.97
2018-02-18T10:42:52.238Z,35.30
2018-02-18T10:45:19.128Z,39.00
2018-02-18T10:47:45.999Z,37.30
2018-02-18T10:50:13.257Z,34.85
2018-02-18T10:52:40.194Z,37.47
2018-02-18T10:55:07.227Z,37.17
2018-02-18T10:57:34.122Z,38.40
2018-02-18T11:00:00.991Z,35.40
2018-02-18T11:02:28.290Z,38.17
2018-02-18T11:04:55.184Z,32.93
2018-02-18T11:07:22.064Z,33.70
2018-02-18T11:09:48.974Z,36.77
2018-02-18T11:12:16.016Z,32.67
2018-02-18T11:14:43.029Z,31.83
2018-02-18T11:17:10.088Z,40.33
2018-02-18T11:19:37.009Z,36.10
2018-02-18T11:22:03.864Z,33.40
2018-02-18T11:24:30.730Z,36.27
2018-02-18T11:26:57.592Z,38.00
2018-02-18T11:29:24.543Z,33.70
2018-02-18T11:31:51.425Z,39.17
2018-02-18T11:34:18.273Z,35.00
2018-02-18T11:36:45.250Z,35.80
2018-02-18T11:39:12.177Z,33.50
2018-02-18T11:41:39.142Z,32.97
2018-02-18T11:44:06.049Z,37.10
2018-02-18T11:46:33.365Z,33.53
2018-02-18T11:49:00.258Z,37.20
2018-02-18T11:51:27.137Z,41.30
2018-02-18T11:53:54.450Z,38.83
2018-02-18T11:56:21.416Z,30.77
2018-02-18T11:58:48.275Z,30.83
2018-02-18T12:01:15.311Z,26.17
2018-02-18T12:03:42.186Z,27.67
2018-02-18T12:06:09.084Z,31.60
2018-02-18T12:08:35.996Z,31.43
2018-02-18T12:11:03.049Z,31.60
2018-02-18T12:13:29.902Z,28.60
2018-02-18T12:15:56.761Z,27.67
2018-02-18T12:18:23.731Z,29.30
2018-02-18T12:20:50.598Z,32.17
2018-02-18T12:23:17.560Z,27.10
2018-02-18T12:25:44.424Z,32.40
2018-02-18T12:28:11.378Z,29.07
2018-02-18T12:30:38.241Z,32.60
2018-02-18T12:33:05.211Z,25.40
2018-02-18T12:35:32.146Z,21.57
2018-02-18T12:37:59.102Z,27.13
2018-02-18T12:40:26.075Z,27.17
2018-02-18T12:42:53.024Z,26.47
2018-02-18T12:45:19.892Z,33.03
2018-02-18T12:47:46.892Z,26.90
2018-02-18T12:50:13.830Z,26.63
2018-02-18T12:52:40.689Z,25.37
2018-02-18T12:55:07.606Z,25.53
2018-02-18T12:57:34.626Z,25.57
2018-02-18T13:00:01.482Z,23.70
2018-02-18T13:02:28.749Z,23.00
2018-02-18T13:04:55.710Z,23.70
2018-02-18T13:07:22.671Z,28.20
2018-02-18T13:09:49.590Z,23.37
2018-02-18T13:12:16.494Z,24.97
2018-02-18T13:14:43.763Z,21.00
2018-02-18T13:17:11.036Z,24.40
2018-02-18T13:19:38.338Z,21.90
2018-02-18T13:22:05.212Z,22.23
2018-02-18T13:24:32.072Z,26.43
2018-02-18T13:26:59.005Z,23.83
2018-02-18T13:29:26.386Z,20.83
2018-02-18T13:31:53.270Z,18.50
2018-02-18T13:34:20.194Z,18.87
2018-02-18T13:36:47.162Z,28.20
2018-02-18T13:39:14.029Z,20.60
2018-02-18T13:41:40.885Z,26.20
2018-02-18T13:44:07.755Z,19.70
2018-02-18T13:46:34.685Z,20.13
2018-02-18T13:49:01.647Z,20.80
2018-02-18T13:51:28.513Z,20.30
2018-02-18T13:53:55.377Z,22.33
2018-02-18T13:56:22.252Z,21.27
2018-02-18T13:58:49.169Z,22.70
2018-02-18T14:01:16.185Z,20.83
2018-02-18T14:03:43.030Z,21.50
2018-02-18T14:06:09.966Z,26.20
2018-02-18T14:08:36.910Z,21.87
2018-02-18T14:11:03.866Z,23.50
2018-02-18T14:13:30.823Z,20.37
2018-02-18T14:15:57.710Z,21.50
2018-02-18T14:18:24.570Z,23.73
2018-02-18T14:20:51.503Z,22.67
2018-02-18T14:23:18.370Z,25.13
2018-02-18T14:25:45.315Z,22.73
2018-02-18T14:28:12.272Z,25.17
2018-02-18T14:30:39.974Z,23.00
2018-02-18T14:33:06.823Z,24.23
2018-02-18T14:35:33.706Z,23.47
2018-02-18T14:38:00.553Z,23.47
2018-02-18T14:40:27.489Z,23.20
2018-02-18T14:46:05.766Z,25.27
2018-02-18T14:48:44.655Z,22.40
2018-02-18T14:51:23.465Z,29.40
2018-02-18T14:54:02.269Z,23.90
2018-02-18T14:56:35.149Z,26.80
2018-02-18T14:59:02.066Z,21.07
2018-02-18T15:01:29.319Z,22.27
2018-02-18T15:03:56.208Z,26.53
2018-02-18T15:06:23.453Z,22.57
2018-02-18T15:08:50.302Z,22.60
2018-02-18T15:11:17.194Z,25.63
2018-02-18T15:13:44.069Z,21.83
2018-02-18T15:16:10.997Z,20.93
2018-02-18T15:18:38.325Z,21.73
2018-02-18T15:21:05.246Z,21.57
2018-02-18T15:23:32.537Z,22.20
2018-02-18T15:25:59.408Z,23.80
2018-02-18T15:28:26.282Z,21.90
2018-02-18T15:30:53.119Z,22.37
2018-02-18T15:33:19.986Z,20.50
2018-02-18T15:35:46.914Z,19.70
2018-02-18T15:38:13.800Z,24.57
2018-02-18T15:40:40.761Z,28.20
2018-02-18T15:43:07.619Z,22.87
2018-02-18T15:45:34.559Z,23.50
2018-02-18T15:48:01.419Z,20.93
2018-02-18T15:50:28.372Z,21.20
2018-02-18T15:52:55.326Z,24.43
2018-02-18T15:55:22.201Z,25.33
2018-02-18T15:57:49.056Z,25.23
2018-02-18T16:00:16.069Z,26.23
2018-02-18T16:02:43.316Z,27.70
2018-02-18T16:05:10.586Z,21.33
2018-02-18T16:07:37.845Z,27.40
2018-02-18T16:10:05.179Z,23.87
2018-02-18T16:12:32.058Z,22.03
2018-02-18T16:14:58.955Z,22.80
2018-02-18T16:17:26.545Z,24.43
2018-02-18T16:19:53.415Z,25.87
2018-02-18T16:22:20.405Z,24.20
2018-02-18T16:24:47.273Z,24.07
2018-02-18T16:27:14.151Z,22.40
2018-02-18T16:29:41.456Z,20.67
2018-02-18T16:32:08.434Z,23.70
2018-02-18T16:34:35.340Z,25.03
2018-02-18T16:37:02.218Z,24.67
2018-02-18T16:39:29.085Z,21.50
2018-02-18T16:41:55.959Z,28.37
2018-02-18T16:44:22.832Z,22.80
2018-02-18T16:46:49.690Z,26.13
2018-02-18T16:49:16.579Z,22.63
2018-02-18T16:51:43.449Z,24.50
2018-02-18T16:54:10.321Z,24.43
2018-02-18T16:56:37.177Z,26.37
2018-02-18T16:59:04.046Z,23.90
2018-02-18T17:01:31.000Z,26.10
2018-02-18T17:03:57.853Z,28.37
2018-02-18T17:06:24.721Z,22.47
2018-02-18T17:08:51.753Z,24.60
2018-02-18T17:11:19.005Z,25.10
2018-02-18T17:13:45.885Z,23.53
2018-02-18T17:16:12.784Z,27.17
2018-02-18T17:18:39.718Z,23.80
2018-02-18T17:21:06.662Z,29.57
2018-02-18T17:23:33.507Z,29.17
2018-02-18T17:26:00.429Z,40.40
2018-02-18T17:28:27.351Z,30.73
2018-02-18T17:30:54.306Z,36.90
2018-02-18T17:33:21.226Z,38.70
2018-02-18T17:35:48.082Z,38.20
2018-02-18T17:38:14.975Z,39.90
2018-02-18T17:40:41.888Z,35.17
2018-02-18T17:43:09.195Z,33.53
2018-02-18T17:45:36.050Z,31.53
2018-02-18T17:48:02.951Z,36.43
2018-02-18T17:50:29.805Z,43.57
2018-02-18T17:52:56.945Z,36.97
2018-02-18T17:55:23.810Z,36.83
2018-02-18T17:57:50.682Z,33.67
2018-02-18T18:00:17.563Z,32.30
2018-02-18T18:02:44.903Z,33.03
2018-02-18T18:05:11.845Z,29.37
2018-02-18T18:07:38.722Z,41.97
2018-02-18T18:10:05.637Z,39.53
2018-02-18T18:12:32.486Z,39.87
2018-02-18T18:14:59.354Z,38.80
2018-02-18T18:17:26.210Z,36.90
2018-02-18T18:19:53.085Z,35.33
2018-02-18T18:22:20.034Z,38.10
2018-02-18T18:24:46.981Z,40.90
2018-02-18T18:27:13.873Z,40.57
2018-02-18T18:29:40.834Z,45.37
2018-02-18T18:32:07.685Z,35.93
2018-02-18T18:34:34.560Z,36.87
2018-02-18T18:37:01.421Z,33.83
2018-02-18T18:39:28.283Z,35.90
2018-02-18T18:41:55.218Z,27.83
2018-02-18T18:44:22.085Z,30.53
2018-02-18T18:46:48.948Z,24.60
2018-02-18T18:49:15.817Z,24.30
2018-02-18T18:51:43.082Z,25.13
2018-02-18T18:54:10.401Z,28.20
2018-02-18T18:56:37.252Z,24.80
2018-02-18T18:59:04.114Z,24.87
2018-02-18T19:01:31.071Z,23.33
2018-02-18T19:03:58.030Z,25.13
2018-02-18T19:06:25.013Z,22.50
2018-02-18T19:08:52.043Z,26.67
2018-02-18T19:11:18.879Z,25.80
2018-02-18T19:13:46.187Z,30.37
2018-02-18T19:16:13.160Z,40.03
2018-02-18T19:18:40.035Z,43.70
2018-02-18T19:21:06.958Z,37.43
2018-02-18T19:23:33.923Z,36.70
2018-02-18T19:26:00.875Z,36.80
2018-02-18T19:28:27.749Z,42.53
2018-02-18T19:30:54.710Z,39.87
2018-02-18T19:33:21.647Z,44.03
2018-02-18T19:35:48.518Z,41.77
2018-02-18T19:38:15.482Z,40.90
2018-02-18T19:40:42.412Z,43.53
2018-02-18T19:43:09.274Z,42.70
2018-02-18T19:45:36.138Z,45.83
2018-02-18T19:48:03.096Z,46.57
2018-02-18T19:50:30.046Z,43.13
2018-02-18T19:52:57.006Z,47.57
2018-02-18T19:55:23.856Z,40.93
2018-02-18T19:57:50.738Z,45.17
2018-02-18T20:00:17.646Z,47.00
2018-02-18T20:02:44.983Z,50.10
2018-02-18T20:05:11.874Z,44.53
2018-02-18T20:07:39.198Z,44.10
2018-02-18T20:10:06.142Z,41.60
2018-02-18T20:12:33.097Z,46.30
2018-02-18T20:15:00.094Z,48.53
2018-02-18T20:17:26.959Z,48.43
2018-02-18T20:19:53.810Z,46.10
2018-02-18T20:22:20.681Z,41.40
2018-02-18T20:24:47.993Z,42.57
2018-02-18T20:27:14.869Z,47.60
2018-02-18T20:29:41.822Z,41.27
2018-02-18T20:32:08.714Z,41.30
2018-02-18T20:34:35.585Z,40.70
2018-02-18T20:37:02.895Z,37.60
2018-02-18T20:39:29.774Z,37.57
2018-02-18T20:41:56.631Z,36.87
2018-02-18T20:44:23.497Z,35.20
2018-02-18T20:46:50.372Z,32.87
2018-02-18T20:49:17.655Z,35.87
2018-02-18T20:51:44.926Z,42.10
2018-02-18T20:54:11.828Z,39.33
2018-02-18T20:56:38.727Z,36.37
2018-02-18T20:59:06.045Z,31.00
2018-02-18T21:01:33.016Z,32.50
2018-02-18T21:03:59.885Z,33.53
2018-02-18T21:06:26.810Z,33.47
2018-02-18T21:08:53.765Z,36.10
2018-02-18T21:11:20.646Z,36.60
2018-02-18T21:13:47.537Z,31.33
2018-02-18T21:16:14.904Z,33.80
2018-02-18T21:18:42.234Z,33.03
2018-02-18T21:21:09.143Z,33.40
2018-02-18T21:23:36.003Z,33.53
2018-02-18T21:26:03.266Z,32.17
2018-02-18T21:28:30.561Z,35.50
2018-02-18T21:30:57.519Z,33.50
2018-02-18T21:33:24.490Z,30.83
2018-02-18T21:35:51.362Z,31.53
2018-02-18T21:38:18.252Z,36.53
2018-02-18T21:40:45.163Z,33.03
2018-02-18T21:43:12.130Z,32.43
2018-02-18T21:45:39.054Z,28.83
2018-02-18T21:48:05.901Z,33.37
2018-02-18T21:50:32.798Z,33.17
2018-02-18T21:52:59.749Z,29.13
2018-02-18T21:55:26.712Z,34.33
2018-02-18T21:57:53.578Z,35.67
2018-02-18T22:00:20.531Z,32.03
2018-02-18T22:02:47.397Z,29.43
2018-02-18T22:05:14.255Z,32.40
2018-02-18T22:07:41.339Z,32.17
2018-02-18T22:10:08.190Z,30.93
2018-02-18T22:12:35.039Z,30.57
2018-02-18T22:15:01.920Z,30.83
2018-02-18T22:17:28.762Z,32.70
2018-02-18T22:19:55.681Z,32.30
2018-02-18T22:22:22.551Z,33.07
2018-02-18T22:24:49.502Z,27.20
2018-02-18T22:27:16.370Z,30.40
2018-02-18T22:29:43.244Z,31.77
2018-02-18T22:32:10.191Z,29.57
2018-02-18T22:34:37.141Z,35.20
2018-02-18T22:37:04.007Z,36.20
2018-02-18T22:39:30.946Z,35.07
2018-02-18T22:41:57.850Z,34.80
2018-02-18T22:44:24.706Z,36.03
2018-02-18T22:46:51.574Z,40.63
2018-02-18T22:49:18.432Z,30.63
2018-02-18T22:51:45.305Z,31.00
2018-02-18T22:54:12.613Z,36.33
2018-02-18T22:56:39.565Z,33.77
2018-02-18T22:59:06.451Z,30.43
2018-02-18T23:01:33.403Z,32.63
2018-02-18T23:04:00.257Z,34.97
2018-02-18T23:06:27.181Z,32.17
2018-02-18T23:08:54.069Z,31.47
2018-02-18T23:11:20.927Z,36.83
2018-02-18T23:13:47.784Z,35.07
2018-02-18T23:16:14.668Z,37.60
2018-02-18T23:18:41.621Z,32.87
2018-02-18T23:21:08.495Z,33.67
2018-02-18T23:23:35.807Z,34.53
2018-02-18T23:26:02.769Z,35.70
2018-02-18T23:28:29.652Z,31.60
2018-02-18T23:30:56.580Z,34.73
2018-02-18T23:33:23.434Z,36.43
2018-02-18T23:35:50.400Z,33.17
2018-02-18T23:38:17.265Z,31.90
2018-02-18T23:40:44.215Z,29.43
2018-02-18T23:43:11.089Z,35.67
2018-02-18T23:45:38.033Z,28.80
2018-02-18T23:48:04.903Z,32.83
2018-02-18T23:50:31.757Z,32.63
2018-02-18T23:52:58.680Z,36.17
2018-02-18T23:55:25.493Z,32.60
2018-02-18T23:57:52.458Z,34.27
